Time;durP1;ratioP1;P1;durP2;ratioP2;P2;SDS_P1;SDS_P2;PMS_P1;PMS_P2;Temp;Humidity;BMP_temperature;BMP_pressure;BME280_temperature;BME280_humidity;BME280_pressure;Samples;Min_cycle;Max_cycle;Signal;HPM_P1;HPM_P2
2021/12/25 00:01:52;;;;;;;0.40;0.40;;;-1.60;99.90;;;;;;4444243;32;20065;-64
2021/12/25 00:04:18;;;;;;;0.40;0.40;;;-1.70;99.90;;;;;;4444649;32;20083;-64
2021/12/25 00:06:44;;;;;;;0.40;0.40;;;-1.90;99.90;;;;;;4445286;32;20126;-65
2021/12/25 00:09:09;;;;;;;0.50;0.50;;;-2.00;99.90;;;;;;4446096;32;20496;-64
2021/12/25 00:11:35;;;;;;;2.08;1.15;;;-2.00;99.90;;;;;;4445364;32;20074;-63
2021/12/25 00:14:00;;;;;;;0.40;0.40;;;-2.20;99.90;;;;;;4443608;32;20390;-65
2021/12/25 00:16:26;;;;;;;0.40;0.40;;;-2.20;99.90;;;;;;4444793;32;20080;-65
2021/12/25 00:18:51;;;;;;;0.40;0.40;;;-2.10;99.90;;;;;;4445596;32;20065;-64
2021/12/25 00:21:17;;;;;;;0.37;0.37;;;-2.10;99.90;;;;;;4445341;32;20089;-65
2021/12/25 00:23:42;;;;;;;0.40;0.40;;;-2.10;99.90;;;;;;4445180;32;20061;-64
2021/12/25 00:26:22;;;;;;;6.18;2.17;;;-2.10;99.90;;;;;;4443825;32;20517;-65
2021/12/25 00:28:57;;;;;;;0.50;0.50;;;-2.20;99.90;;;;;;4443508;32;20073;-64
2021/12/25 00:31:31;;;;;;;0.43;0.43;;;-2.30;99.90;;;;;;4446564;32;20056;-66
2021/12/25 00:34:01;;;;;;;0.95;0.95;;;-2.40;99.90;;;;;;4444429;32;20447;-64
2021/12/25 00:36:27;;;;;;;0.50;0.50;;;-2.30;99.90;;;;;;4444911;32;20130;-64
2021/12/25 00:38:53;;;;;;;0.50;0.50;;;-2.40;99.90;;;;;;4431082;32;20412;-65
2021/12/25 00:41:21;;;;;;;0.40;0.40;;;-2.30;99.90;;;;;;4444409;32;20061;-64
2021/12/25 00:43:47;;;;;;;0.40;0.40;;;-2.40;99.90;;;;;;4446376;32;20057;-65
2021/12/25 00:46:13;;;;;;;0.40;0.40;;;-2.30;99.90;;;;;;4444743;32;20045;-65
2021/12/25 00:48:39;;;;;;;0.40;0.40;;;-2.30;99.90;;;;;;4444368;32;20438;-65
2021/12/25 00:51:05;;;;;;;0.40;0.40;;;-2.20;99.90;;;;;;4445924;32;20057;-65
2021/12/25 00:53:31;;;;;;;0.40;0.40;;;-2.30;99.90;;;;;;4445038;32;20529;-64
2021/12/25 00:55:56;;;;;;;0.40;0.40;;;-2.40;99.90;;;;;;4444890;32;20053;-64
2021/12/25 00:58:23;;;;;;;0.45;0.45;;;-2.50;99.90;;;;;;4444219;32;20146;-64
2021/12/25 01:00:48;;;;;;;0.40;0.40;;;-2.50;99.90;;;;;;4444537;32;20061;-65
2021/12/25 01:03:14;;;;;;;0.50;0.50;;;-2.50;99.90;;;;;;4448615;32;20064;-65
2021/12/25 01:05:40;;;;;;;0.40;0.40;;;-2.60;99.90;;;;;;4444662;32;20054;-65
2021/12/25 01:08:05;;;;;;;0.40;0.40;;;-2.80;99.90;;;;;;4444565;32;20583;-66
2021/12/25 01:10:33;;;;;;;0.40;0.40;;;-3.00;99.90;;;;;;4444257;32;20082;-63
2021/12/25 01:13:07;;;;;;;0.50;0.50;;;-3.10;99.90;;;;;;4444259;32;20065;-64
2021/12/25 01:15:49;;;;;;;0.40;0.40;;;-2.90;99.90;;;;;;4444889;32;20123;-65
2021/12/25 01:20:09;;;;;;;2.17;0.82;;;-2.90;99.90;;;;;;4443985;32;20556;-63
2021/12/25 01:25:15;;;;;;;0.40;0.40;;;-2.90;99.90;;;;;;4443565;32;20084;-63
2021/12/25 01:27:06;;;;;;;0.40;0.40;;;-3.00;99.90;;;;;;4436273;32;20066;-66
2021/12/25 01:29:25;;;;;;;0.43;0.43;;;-2.90;99.90;;;;;;4436302;32;20077;-65
2021/12/25 01:32:19;;;;;;;0.37;0.37;;;-2.80;99.90;;;;;;4451239;32;20061;-64
2021/12/25 01:37:39;;;;;;;0.40;0.40;;;-2.80;99.90;;;;;;4435257;32;20140;-65
2021/12/25 01:40:25;;;;;;;0.40;0.40;;;-2.90;99.90;;;;;;4444915;32;20077;-65
2021/12/25 01:48:20;;;;;;;0.40;0.40;;;-2.80;99.90;;;;;;4443931;32;20057;-64
2021/12/25 01:50:47;;;;;;;0.40;0.40;;;-2.80;99.90;;;;;;4446939;32;20525;-65
2021/12/25 01:53:13;;;;;;;0.47;0.47;;;-2.90;99.90;;;;;;4447040;32;20061;-65
2021/12/25 01:55:38;;;;;;;0.40;0.40;;;-2.90;99.90;;;;;;4446886;32;20530;-65
2021/12/25 01:58:04;;;;;;;0.45;0.45;;;-2.90;99.90;;;;;;4448020;32;20069;-65
2021/12/25 02:00:36;;;;;;;0.50;0.50;;;-3.00;99.90;;;;;;4445601;32;20082;-65
2021/12/25 02:03:05;;;;;;;0.40;0.40;;;-3.00;99.90;;;;;;4439616;32;20068;-65
2021/12/25 02:05:31;;;;;;;0.40;0.40;;;-3.00;99.90;;;;;;4446256;32;20464;-65
2021/12/25 02:07:57;;;;;;;0.50;0.50;;;-2.90;99.90;;;;;;4446857;32;20124;-64
2021/12/25 02:10:22;;;;;;;0.40;0.40;;;-3.10;99.90;;;;;;4447506;32;20151;-64
2021/12/25 02:12:48;;;;;;;0.50;0.50;;;-3.10;99.90;;;;;;4446808;32;20061;-65
2021/12/25 02:15:18;;;;;;;1.27;0.95;;;-3.00;99.90;;;;;;4447239;32;20065;-66
2021/12/25 02:18:09;;;;;;;0.50;0.50;;;-2.90;99.90;;;;;;4444221;32;20057;-65
2021/12/25 02:20:39;;;;;;;3.60;1.25;;;-2.90;99.90;;;;;;4437085;32;20073;-65
2021/12/25 02:23:18;;;;;;;0.40;0.40;;;-3.00;99.90;;;;;;4445287;32;20074;-65
2021/12/25 02:25:45;;;;;;;0.50;0.50;;;-2.90;99.90;;;;;;4446857;32;20061;-65
2021/12/25 02:28:12;;;;;;;0.40;0.40;;;-3.00;99.90;;;;;;4447178;32;20419;-65
2021/12/25 02:30:39;;;;;;;0.40;0.40;;;-3.00;99.90;;;;;;4445506;32;20069;-65
2021/12/25 02:33:04;;;;;;;0.40;0.40;;;-3.00;99.90;;;;;;4445720;32;20517;-64
2021/12/25 02:35:30;;;;;;;0.40;0.40;;;-3.00;99.90;;;;;;4446410;32;20085;-65
2021/12/25 02:37:57;;;;;;;0.40;0.40;;;-3.00;99.90;;;;;;4445968;32;20057;-65
2021/12/25 02:40:23;;;;;;;0.40;0.40;;;-3.10;99.90;;;;;;4445855;32;20065;-64
2021/12/25 02:42:48;;;;;;;0.40;0.40;;;-3.20;99.90;;;;;;4438698;32;20053;-65
2021/12/25 02:45:18;;;;;;;0.40;0.40;;;-3.20;99.90;;;;;;4441832;32;20084;-64
2021/12/25 02:47:46;;;;;;;0.50;0.50;;;-3.10;99.90;;;;;;4446258;32;20130;-64
2021/12/25 02:50:21;;;;;;;0.47;0.47;;;-3.10;99.90;;;;;;4446487;32;20061;-65
2021/12/25 02:52:46;;;;;;;0.75;0.75;;;-3.00;99.90;;;;;;4446231;32;20061;-64
2021/12/25 02:55:12;;;;;;;0.40;0.40;;;-2.90;99.90;;;;;;4445816;32;20451;-65
2021/12/25 02:57:37;;;;;;;0.60;0.60;;;-3.00;99.90;;;;;;4447465;32;20124;-64
2021/12/25 03:00:08;;;;;;;0.65;0.65;;;-3.10;99.90;;;;;;4444495;32;20470;-65
2021/12/25 03:02:34;;;;;;;0.50;0.50;;;-3.10;99.90;;;;;;4444904;32;20076;-65
2021/12/25 03:05:00;;;;;;;0.50;0.50;;;-3.10;99.90;;;;;;4445213;32;20061;-65
2021/12/25 03:07:26;;;;;;;0.50;0.50;;;-3.20;99.90;;;;;;4444858;32;20144;-64
2021/12/25 03:09:52;;;;;;;0.40;0.40;;;-3.20;99.90;;;;;;4445990;32;20089;-65
2021/12/25 03:12:28;;;;;;;1.10;1.05;;;-3.20;99.90;;;;;;4446764;32;20093;-64
2021/12/25 03:15:29;;;;;;;0.40;0.40;;;-3.30;99.90;;;;;;4445571;32;20061;-64
2021/12/25 03:17:40;;;;;;;0.50;0.50;;;-3.30;99.90;;;;;;4440677;32;20084;-65
2021/12/25 03:20:09;;;;;;;0.47;0.47;;;-3.30;99.90;;;;;;4450007;32;20137;-64
2021/12/25 03:22:37;;;;;;;0.60;0.60;;;-3.40;99.90;;;;;;4445199;32;20062;-64
2021/12/25 03:25:05;;;;;;;0.43;0.43;;;-3.50;99.90;;;;;;4444871;32;20061;-64
2021/12/25 03:27:33;;;;;;;0.43;0.43;;;-3.40;99.90;;;;;;4446013;32;20072;-65
2021/12/25 03:30:00;;;;;;;0.40;0.40;;;-3.50;99.90;;;;;;4444131;32;20084;-65
2021/12/25 03:32:25;;;;;;;0.50;0.50;;;-3.50;99.90;;;;;;4445821;32;20065;-65
2021/12/25 03:34:51;;;;;;;0.57;0.57;;;-3.50;99.90;;;;;;4445804;32;20073;-64
2021/12/25 03:37:16;;;;;;;0.40;0.40;;;-3.50;99.90;;;;;;4446112;32;20065;-63
2021/12/25 03:39:42;;;;;;;0.50;0.50;;;-3.60;99.90;;;;;;4445465;32;20198;-65
2021/12/25 03:42:08;;;;;;;0.73;0.73;;;-3.60;99.90;;;;;;4445746;32;20509;-64
2021/12/25 03:44:35;;;;;;;0.80;0.80;;;-3.60;99.90;;;;;;4444566;32;20074;-64
2021/12/25 03:47:04;;;;;;;0.40;0.40;;;-3.50;99.90;;;;;;4446285;32;20065;-65
2021/12/25 03:53:09;;;;;;;0.75;0.75;;;-3.60;99.90;;;;;;4440767;32;20065;-65
2021/12/25 03:57:52;;;;;;;0.50;0.50;;;-3.60;99.90;;;;;;4436437;32;20081;-65
2021/12/25 04:00:27;;;;;;;0.40;0.40;;;-3.60;99.90;;;;;;4444163;32;20124;-65
2021/12/25 04:02:56;;;;;;;0.40;0.40;;;-3.70;99.90;;;;;;4443326;32;20089;-65
2021/12/25 04:05:27;;;;;;;0.43;0.43;;;-3.70;99.90;;;;;;4444654;32;21164;-65
2021/12/25 04:08:01;;;;;;;0.50;0.50;;;-3.70;99.90;;;;;;4445391;32;20073;-64
2021/12/25 04:10:29;;;;;;;0.40;0.40;;;-3.70;99.90;;;;;;4445456;32;20120;-64
2021/12/25 04:12:55;;;;;;;0.30;0.30;;;-3.80;99.90;;;;;;4446207;32;20060;-65
2021/12/25 04:15:21;;;;;;;0.40;0.40;;;-3.90;99.90;;;;;;4445564;32;20093;-65
2021/12/25 04:17:46;;;;;;;0.40;0.40;;;-3.80;99.90;;;;;;4445303;32;20073;-64
2021/12/25 04:20:12;;;;;;;0.45;0.45;;;-3.80;99.90;;;;;;4448506;32;20061;-63
2021/12/25 04:22:46;;;;;;;1.25;1.02;;;-3.90;99.90;;;;;;4443373;32;20074;-65
2021/12/25 04:25:12;;;;;;;0.50;0.50;;;-3.90;99.90;;;;;;4444654;32;20060;-64
2021/12/25 04:27:38;;;;;;;0.40;0.40;;;-3.80;99.90;;;;;;4445308;32;20470;-65
2021/12/25 04:30:18;;;;;;;0.35;0.35;;;-3.80;99.90;;;;;;4443718;32;20521;-64
2021/12/25 04:48:55;;;;;;;0.65;0.65;;;-3.80;99.90;;;;;;4443650;32;20132;-64
2021/12/25 04:50:07;;;;;;;1.12;1.02;;;-3.90;99.90;;;;;;4439088;32;20101;-64
2021/12/25 05:02:04;;;;;;;0.65;0.65;;;-3.90;99.90;;;;;;4442368;32;20082;-64
2021/12/25 05:03:09;;;;;;;0.47;0.47;;;-3.90;99.90;;;;;;4439789;32;20138;-65
2021/12/25 05:05:23;;;;;;;0.50;0.50;;;-3.90;99.90;;;;;;4436273;32;20089;-64
2021/12/25 05:07:48;;;;;;;0.40;0.40;;;-3.80;99.90;;;;;;4443492;32;20057;-64
2021/12/25 05:10:14;;;;;;;0.40;0.40;;;-3.80;99.90;;;;;;4443126;32;20052;-64
2021/12/25 05:12:40;;;;;;;0.47;0.47;;;-3.80;99.90;;;;;;4443238;32;20076;-65
2021/12/25 05:15:06;;;;;;;0.40;0.40;;;-3.80;99.90;;;;;;4444831;32;20057;-65
2021/12/25 05:17:32;;;;;;;0.40;0.40;;;-3.80;99.90;;;;;;4443745;32;20459;-65
2021/12/25 05:19:59;;;;;;;0.40;0.40;;;-3.80;99.90;;;;;;4444502;32;20085;-63
2021/12/25 05:22:25;;;;;;;0.85;0.85;;;-3.90;99.90;;;;;;4444261;32;20074;-64
2021/12/25 05:24:51;;;;;;;0.50;0.50;;;-4.00;99.90;;;;;;4444758;32;20419;-64
2021/12/25 05:27:17;;;;;;;0.40;0.40;;;-4.10;99.90;;;;;;4444180;32;20066;-64
2021/12/25 05:29:46;;;;;;;2.22;1.65;;;-4.20;99.90;;;;;;4443664;32;20398;-65
2021/12/25 05:32:13;;;;;;;1.15;1.05;;;-4.20;99.90;;;;;;4442262;32;20077;-65
2021/12/25 05:34:38;;;;;;;0.85;0.85;;;-4.10;99.90;;;;;;4443166;32;20434;-65
2021/12/25 05:37:04;;;;;;;0.70;0.70;;;-4.30;99.90;;;;;;4443353;32;20073;-64
2021/12/25 05:39:30;;;;;;;0.40;0.40;;;-4.40;99.90;;;;;;4437779;32;20065;-64
2021/12/25 05:41:56;;;;;;;0.40;0.40;;;-4.20;99.90;;;;;;4442963;32;20461;-65
2021/12/25 05:44:22;;;;;;;0.45;0.45;;;-4.20;99.90;;;;;;4443873;32;20076;-64
2021/12/25 05:46:48;;;;;;;0.40;0.40;;;-4.20;99.90;;;;;;4444982;32;20116;-64
2021/12/25 05:49:14;;;;;;;0.80;0.80;;;-4.10;99.90;;;;;;4444363;32;20126;-64
2021/12/25 05:51:39;;;;;;;0.40;0.40;;;-4.10;99.90;;;;;;4443353;32;20069;-65
2021/12/25 05:54:07;;;;;;;0.40;0.40;;;-4.10;99.90;;;;;;4443856;32;20105;-65
2021/12/25 05:56:32;;;;;;;0.80;0.80;;;-4.10;99.90;;;;;;4444031;32;20065;-64
2021/12/25 05:58:58;;;;;;;0.40;0.40;;;-4.00;99.90;;;;;;4442505;32;20587;-63
2021/12/25 06:01:25;;;;;;;0.60;0.60;;;-4.10;99.90;;;;;;4443240;32;20073;-64
2021/12/25 06:03:50;;;;;;;0.40;0.40;;;-4.10;99.90;;;;;;4442130;32;20454;-65
2021/12/25 06:06:16;;;;;;;0.40;0.40;;;-4.10;99.90;;;;;;4442711;32;20078;-64
2021/12/25 06:08:41;;;;;;;0.40;0.40;;;-4.10;99.90;;;;;;4441695;32;20089;-63
2021/12/25 06:11:07;;;;;;;0.70;0.70;;;-4.20;99.90;;;;;;4444002;32;20081;-64
2021/12/25 06:13:37;;;;;;;0.40;0.40;;;-4.50;99.90;;;;;;4444249;32;20305;-64
2021/12/25 06:16:03;;;;;;;0.50;0.50;;;-4.60;99.90;;;;;;4442097;32;20077;-64
2021/12/25 06:18:28;;;;;;;0.50;0.50;;;-4.70;99.90;;;;;;4445802;32;20477;-65
2021/12/25 06:20:54;;;;;;;0.40;0.40;;;-4.70;99.90;;;;;;4446822;32;20179;-64
2021/12/25 06:23:19;;;;;;;0.75;0.75;;;-4.60;99.90;;;;;;4446047;32;20093;-64
2021/12/25 06:25:45;;;;;;;0.47;0.47;;;-4.70;99.90;;;;;;4446236;32;20069;-65
2021/12/25 06:28:10;;;;;;;0.50;0.50;;;-4.70;99.90;;;;;;4441602;32;20081;-65
2021/12/25 06:30:38;;;;;;;0.50;0.50;;;-4.80;99.90;;;;;;4444027;32;20169;-65
2021/12/25 06:33:04;;;;;;;0.40;0.40;;;-4.70;99.90;;;;;;4446215;32;20086;-64
2021/12/25 06:35:31;;;;;;;0.40;0.40;;;-4.60;99.90;;;;;;4446307;32;20065;-63
2021/12/25 06:37:56;;;;;;;1.10;0.77;;;-4.50;99.90;;;;;;4446124;32;20163;-64
2021/12/25 06:40:22;;;;;;;0.50;0.50;;;-4.50;99.90;;;;;;4443295;32;20072;-62
2021/12/25 06:42:48;;;;;;;0.55;0.55;;;-4.40;99.90;;;;;;4445437;32;20536;-64
2021/12/25 06:45:14;;;;;;;0.40;0.40;;;-4.30;99.90;;;;;;4447144;32;20117;-63
2021/12/25 06:47:40;;;;;;;0.40;0.40;;;-4.20;99.90;;;;;;4447096;32;20077;-65
2021/12/25 06:50:08;;;;;;;0.50;0.50;;;-4.20;99.90;;;;;;4444334;32;20073;-64
2021/12/25 06:52:34;;;;;;;0.70;0.70;;;-4.20;99.90;;;;;;4445196;32;20524;-65
2021/12/25 06:55:00;;;;;;;0.40;0.40;;;-4.40;99.90;;;;;;4445622;32;20065;-65
2021/12/25 06:57:28;;;;;;;0.40;0.40;;;-4.50;99.90;;;;;;4446017;32;20124;-65
2021/12/25 06:59:53;;;;;;;0.40;0.40;;;-4.60;99.90;;;;;;4446072;32;20424;-64
2021/12/25 07:02:19;;;;;;;0.40;0.40;;;-4.50;99.90;;;;;;4444841;32;20073;-63
2021/12/25 07:04:44;;;;;;;0.60;0.60;;;-4.40;99.90;;;;;;4446247;32;20049;-63
2021/12/25 07:07:10;;;;;;;0.40;0.40;;;-4.30;99.90;;;;;;4444756;32;20119;-64
2021/12/25 07:09:36;;;;;;;0.50;0.50;;;-4.30;99.90;;;;;;4444313;32;20089;-64
2021/12/25 07:12:01;;;;;;;0.40;0.40;;;-4.30;99.90;;;;;;4446689;32;20068;-65
2021/12/25 07:14:27;;;;;;;0.40;0.40;;;-4.30;99.90;;;;;;4445844;32;20131;-65
2021/12/25 07:16:52;;;;;;;0.40;0.40;;;-4.40;99.90;;;;;;4445080;32;20545;-64
2021/12/25 07:19:18;;;;;;;0.73;0.73;;;-4.40;99.90;;;;;;4446316;32;20120;-64
2021/12/25 07:21:43;;;;;;;0.40;0.40;;;-4.30;99.90;;;;;;4442051;32;20077;-65
2021/12/25 07:24:11;;;;;;;0.40;0.40;;;-4.40;99.90;;;;;;4445444;32;20469;-64
2021/12/25 07:26:38;;;;;;;0.50;0.50;;;-4.50;99.90;;;;;;4444080;32;20089;-65
2021/12/25 07:29:03;;;;;;;0.50;0.50;;;-4.50;99.90;;;;;;4444610;32;20061;-64
2021/12/25 07:31:29;;;;;;;0.47;0.47;;;-4.60;99.90;;;;;;4445861;32;20089;-64
2021/12/25 07:33:55;;;;;;;0.50;0.50;;;-4.70;99.90;;;;;;4444926;32;20069;-64
2021/12/25 07:36:20;;;;;;;0.60;0.60;;;-4.50;99.90;;;;;;4443563;32;20061;-64
2021/12/25 07:38:46;;;;;;;0.70;0.70;;;-4.50;99.90;;;;;;4432553;32;20069;-64
2021/12/25 07:41:12;;;;;;;0.40;0.40;;;-4.40;99.90;;;;;;4445557;32;20073;-65
2021/12/25 07:43:37;;;;;;;0.40;0.40;;;-4.30;99.90;;;;;;4445455;32;20069;-65
2021/12/25 07:46:03;;;;;;;0.70;0.70;;;-4.40;99.90;;;;;;4446087;32;20065;-65
2021/12/25 07:48:29;;;;;;;0.50;0.50;;;-4.40;99.90;;;;;;4448638;32;20526;-65
2021/12/25 07:50:57;;;;;;;0.50;0.50;;;-4.40;99.90;;;;;;4445000;32;20073;-65
2021/12/25 07:53:22;;;;;;;0.50;0.50;;;-4.30;99.90;;;;;;4432311;32;20596;-65
2021/12/25 07:55:48;;;;;;;0.40;0.40;;;-4.20;99.90;;;;;;4444197;32;20082;-64
2021/12/25 07:58:15;;;;;;;0.40;0.40;;;-4.20;99.90;;;;;;4436083;32;20461;-64
2021/12/25 08:00:41;;;;;;;0.40;0.40;;;-4.40;99.90;;;;;;4445281;32;20065;-63
2021/12/25 08:03:07;;;;;;;0.45;0.45;;;-4.40;99.90;;;;;;4445070;32;20122;-64
2021/12/25 08:05:33;;;;;;;0.40;0.40;;;-4.50;99.90;;;;;;4443932;32;20420;-63
2021/12/25 08:07:59;;;;;;;0.50;0.50;;;-4.30;99.90;;;;;;4443790;32;20093;-63
2021/12/25 08:10:24;;;;;;;0.40;0.40;;;-4.10;99.90;;;;;;4443794;32;20061;-64
2021/12/25 08:12:54;;;;;;;0.50;0.50;;;-3.90;99.90;;;;;;4444485;32;20060;-64
2021/12/25 08:15:23;;;;;;;0.40;0.40;;;-4.10;99.90;;;;;;4445670;32;20419;-64
2021/12/25 08:17:49;;;;;;;1.05;1.05;;;-4.10;99.90;;;;;;4446241;32;20419;-64
2021/12/25 08:20:15;;;;;;;0.45;0.45;;;-4.00;99.90;;;;;;4444251;32;20073;-63
2021/12/25 08:22:41;;;;;;;0.50;0.50;;;-3.80;99.90;;;;;;4443773;32;20132;-63
2021/12/25 08:25:09;;;;;;;0.40;0.40;;;-3.70;99.90;;;;;;4443852;32;20085;-63
2021/12/25 08:27:34;;;;;;;0.40;0.40;;;-3.60;99.90;;;;;;4444251;32;20160;-63
2021/12/25 08:30:00;;;;;;;0.40;0.40;;;-3.50;99.90;;;;;;4443118;32;20077;-63
2021/12/25 08:32:26;;;;;;;0.47;0.47;;;-3.50;99.90;;;;;;4435740;32;20462;-63
2021/12/25 08:34:51;;;;;;;0.40;0.40;;;-3.40;99.90;;;;;;4445003;32;20068;-63
2021/12/25 08:37:22;;;;;;;0.40;0.40;;;-3.30;99.90;;;;;;4442770;32;20132;-63
2021/12/25 08:39:49;;;;;;;0.40;0.40;;;-3.20;99.90;;;;;;4444144;32;20073;-62
2021/12/25 08:42:15;;;;;;;0.50;0.50;;;-3.10;99.90;;;;;;4445109;32;20065;-63
2021/12/25 08:44:53;;;;;;;0.40;0.40;;;-3.10;99.90;;;;;;4444273;32;20085;-64
2021/12/25 08:47:19;;;;;;;0.50;0.50;;;-3.00;99.90;;;;;;4442958;32;20060;-63
2021/12/25 08:49:45;;;;;;;0.50;0.50;;;-3.00;99.90;;;;;;4447548;32;20513;-63
2021/12/25 08:52:15;;;;;;;0.50;0.50;;;-2.90;99.90;;;;;;4443654;32;20104;-63
2021/12/25 08:54:41;;;;;;;0.93;0.93;;;-2.80;99.90;;;;;;4445582;32;20073;-63
2021/12/25 08:57:08;;;;;;;0.40;0.40;;;-2.70;99.90;;;;;;4443933;32;20072;-63
2021/12/25 08:59:34;;;;;;;0.50;0.50;;;-2.70;99.90;;;;;;4443694;32;20138;-63
2021/12/25 09:02:05;;;;;;;0.40;0.40;;;-2.60;99.90;;;;;;4443274;32;20114;-64
2021/12/25 09:04:31;;;;;;;1.75;1.55;;;-2.50;99.90;;;;;;4429782;32;20157;-64
2021/12/25 09:06:57;;;;;;;0.40;0.40;;;-2.50;99.90;;;;;;4440014;32;20068;-63
2021/12/25 09:09:22;;;;;;;0.40;0.40;;;-2.50;99.90;;;;;;4444593;32;20133;-64
2021/12/25 09:11:48;;;;;;;0.40;0.40;;;-2.40;99.90;;;;;;4443242;32;20061;-64
2021/12/25 09:14:13;;;;;;;0.50;0.50;;;-2.40;99.90;;;;;;4436127;32;20065;-64
2021/12/25 09:16:40;;;;;;;0.40;0.40;;;-2.40;99.90;;;;;;4444696;32;20178;-65
2021/12/25 09:19:06;;;;;;;0.60;0.60;;;-2.40;99.90;;;;;;4452518;32;20084;-64
2021/12/25 09:21:31;;;;;;;0.50;0.50;;;-2.30;99.90;;;;;;4443782;32;20533;-64
2021/12/25 09:23:57;;;;;;;0.40;0.40;;;-2.30;99.90;;;;;;4444285;32;20200;-64
2021/12/25 09:26:23;;;;;;;0.40;0.40;;;-2.20;99.90;;;;;;4440277;32;20073;-64
2021/12/25 09:28:48;;;;;;;0.50;0.50;;;-2.30;99.90;;;;;;4443051;32;20084;-64
2021/12/25 09:31:15;;;;;;;0.40;0.40;;;-2.30;99.90;;;;;;4444729;32;20068;-64
2021/12/25 09:33:41;;;;;;;0.40;0.40;;;-2.20;99.90;;;;;;4443202;32;20501;-64
2021/12/25 09:36:06;;;;;;;0.57;0.57;;;-2.20;99.90;;;;;;4443482;32;20325;-64
2021/12/25 09:38:33;;;;;;;0.47;0.47;;;-2.00;99.90;;;;;;4451221;32;20064;-64
2021/12/25 09:41:00;;;;;;;0.40;0.40;;;-2.00;99.90;;;;;;4444415;32;20061;-64
2021/12/25 09:43:26;;;;;;;0.40;0.40;;;-2.20;99.90;;;;;;4440061;32;20120;-64
2021/12/25 09:45:53;;;;;;;0.40;0.40;;;-2.30;99.90;;;;;;4433565;32;20176;-64
2021/12/25 09:48:19;;;;;;;0.40;0.40;;;-2.20;99.90;;;;;;4429738;32;20120;-65
2021/12/25 09:50:45;;;;;;;0.50;0.50;;;-2.00;99.90;;;;;;4446291;32;20428;-64
2021/12/25 09:53:13;;;;;;;0.40;0.40;;;-1.90;99.90;;;;;;4445709;32;20069;-64
2021/12/25 09:55:40;;;;;;;0.40;0.40;;;-1.80;99.90;;;;;;4448236;32;20053;-64
2021/12/25 09:58:06;;;;;;;0.40;0.40;;;-1.80;99.90;;;;;;4446411;32;20406;-64
2021/12/25 10:00:36;;;;;;;0.43;0.43;;;-1.80;99.90;;;;;;4446489;32;20134;-63
2021/12/25 10:03:02;;;;;;;0.68;0.68;;;-1.80;99.90;;;;;;4434821;32;20561;-64
2021/12/25 10:05:30;;;;;;;0.40;0.40;;;-1.70;99.90;;;;;;4446753;32;20292;-64
2021/12/25 10:08:16;;;;;;;2.42;1.95;;;-1.60;99.90;;;;;;4433242;32;20065;-63
2021/12/25 10:10:50;;;;;;;0.40;0.40;;;-1.40;99.90;;;;;;4445324;32;20374;-65
2021/12/25 10:13:27;;;;;;;0.40;0.40;;;-1.10;99.90;;;;;;4445179;32;20091;-64
2021/12/25 10:15:56;;;;;;;0.73;0.73;;;-1.10;99.90;;;;;;4445988;32;20116;-63
2021/12/25 10:18:29;;;;;;;0.40;0.40;;;-1.10;99.90;;;;;;4445890;32;20056;-63
2021/12/25 10:20:55;;;;;;;0.40;0.40;;;-1.00;99.90;;;;;;4439631;32;20061;-64
2021/12/25 10:23:28;;;;;;;0.40;0.40;;;-0.90;99.90;;;;;;4446576;32;20126;-63
2021/12/25 10:25:57;;;;;;;0.40;0.40;;;-0.90;99.90;;;;;;4447214;32;20065;-64
2021/12/25 10:28:30;;;;;;;0.98;0.93;;;-1.10;99.90;;;;;;4445547;32;20077;-64
2021/12/25 10:30:59;;;;;;;0.40;0.40;;;-1.20;99.90;;;;;;4445112;32;20085;-64
2021/12/25 10:33:32;;;;;;;0.57;0.57;;;-1.10;99.90;;;;;;4444707;32;20081;-65
2021/12/25 10:36:01;;;;;;;0.40;0.40;;;-1.10;99.90;;;;;;4446866;32;20109;-64
2021/12/25 10:38:29;;;;;;;0.50;0.50;;;-1.20;99.90;;;;;;4445772;32;20073;-64
2021/12/25 10:41:17;;;;;;;0.40;0.40;;;-1.10;99.90;;;;;;4446488;32;20525;-64
2021/12/25 10:43:43;;;;;;;0.40;0.40;;;-1.00;99.90;;;;;;4446269;32;20123;-64
2021/12/25 10:46:10;;;;;;;0.50;0.50;;;-0.80;99.90;;;;;;4444729;32;20073;-64
2021/12/25 10:48:36;;;;;;;0.43;0.43;;;-0.80;99.90;;;;;;4441961;32;20123;-65
2021/12/25 10:51:02;;;;;;;0.40;0.40;;;-0.80;99.90;;;;;;4442959;32;20085;-64
2021/12/25 10:53:32;;;;;;;0.40;0.40;;;-0.80;99.90;;;;;;4445531;32;20443;-64
2021/12/25 10:56:07;;;;;;;0.47;0.47;;;-0.80;99.90;;;;;;4446478;32;20073;-64
2021/12/25 10:58:33;;;;;;;0.40;0.40;;;-0.80;99.90;;;;;;4444716;32;20069;-63
2021/12/25 11:00:59;;;;;;;0.62;0.62;;;-0.60;99.90;;;;;;4444986;32;20093;-63
2021/12/25 11:03:29;;;;;;;0.37;0.37;;;-0.60;99.90;;;;;;4443455;32;20163;-64
2021/12/25 11:05:59;;;;;;;0.65;0.65;;;-0.60;99.90;;;;;;4441458;32;20168;-64
2021/12/25 11:08:25;;;;;;;0.60;0.60;;;-0.50;99.90;;;;;;4444679;32;20077;-64
2021/12/25 11:11:08;;;;;;;0.40;0.40;;;-0.40;99.90;;;;;;4446130;32;20077;-64
2021/12/25 11:13:39;;;;;;;0.40;0.40;;;-0.40;99.90;;;;;;4444620;32;20089;-63
2021/12/25 11:16:16;;;;;;;0.40;0.40;;;-0.50;99.90;;;;;;4446693;32;20073;-64
2021/12/25 11:21:34;;;;;;;0.40;0.40;;;-0.50;99.90;;;;;;4444622;32;20124;-64
2021/12/25 11:24:06;;;;;;;0.75;0.68;;;-0.40;99.90;;;;;;4434732;32;20553;-64
2021/12/25 11:26:32;;;;;;;0.40;0.40;;;-0.30;99.90;;;;;;4430755;32;20097;-65
2021/12/25 11:28:58;;;;;;;0.30;0.30;;;-0.20;99.90;;;;;;4442631;32;20521;-64
2021/12/25 11:31:23;;;;;;;0.40;0.40;;;0.10;99.90;;;;;;4445044;32;20070;-65
2021/12/25 11:33:50;;;;;;;0.40;0.40;;;0.20;99.90;;;;;;4444828;32;20093;-63
2021/12/25 11:36:17;;;;;;;0.40;0.40;;;0.40;99.90;;;;;;4445403;32;20579;-64
2021/12/25 11:38:43;;;;;;;0.40;0.40;;;0.50;99.90;;;;;;4444434;32;20085;-65
2021/12/25 11:41:11;;;;;;;0.40;0.40;;;0.40;99.90;;;;;;4445688;32;20509;-65
2021/12/25 11:43:41;;;;;;;0.40;0.40;;;0.20;99.90;;;;;;4446457;32;20085;-65
2021/12/25 11:46:08;;;;;;;0.50;0.50;;;0.50;99.90;;;;;;4447048;32;20433;-64
2021/12/25 11:48:35;;;;;;;0.40;0.40;;;0.50;99.90;;;;;;4445730;32;20150;-64
2021/12/25 11:51:01;;;;;;;0.40;0.40;;;0.60;99.90;;;;;;4444786;32;20096;-64
2021/12/25 11:54:09;;;;;;;0.40;0.40;;;0.50;99.90;;;;;;4444394;32;20061;-63
2021/12/25 11:56:33;;;;;;;0.40;0.40;;;0.40;99.90;;;;;;4437007;32;20070;-63
2021/12/25 11:59:01;;;;;;;0.40;0.40;;;0.20;99.90;;;;;;4444828;32;20109;-65
2021/12/25 12:01:30;;;;;;;0.32;0.32;;;0.40;99.90;;;;;;4443751;32;20064;-64
2021/12/25 12:03:59;;;;;;;0.90;0.90;;;0.70;99.90;;;;;;4445946;32;20068;-65
2021/12/25 12:09:15;;;;;;;0.30;0.30;;;1.20;99.90;;;;;;4440161;32;20116;-64
2021/12/25 12:11:45;;;;;;;0.40;0.40;;;1.30;99.90;;;;;;4442172;32;20061;-65
2021/12/25 12:14:18;;;;;;;5.18;1.50;;;1.90;99.90;;;;;;4457412;32;20130;-66
2021/12/25 12:16:48;;;;;;;0.35;0.35;;;2.10;99.90;;;;;;4448074;32;20124;-64
2021/12/25 12:19:36;;;;;;;0.30;0.30;;;1.80;99.90;;;;;;4445532;32;20077;-65
2021/12/25 12:22:28;;;;;;;0.43;0.43;;;1.90;99.90;;;;;;4443697;32;20094;-64
2021/12/25 12:27:40;;;;;;;0.40;0.40;;;2.50;99.90;;;;;;4444110;32;20137;-65
2021/12/25 12:30:13;;;;;;;0.30;0.30;;;2.50;99.90;;;;;;4444592;32;20058;-65
2021/12/25 12:32:46;;;;;;;0.50;0.50;;;2.50;99.90;;;;;;4443846;32;20097;-65
2021/12/25 12:35:31;;;;;;;0.30;0.30;;;2.90;99.90;;;;;;4443033;32;20065;-64
2021/12/25 12:38:39;;;;;;;0.40;0.40;;;3.20;98.90;;;;;;4442909;32;20129;-64
2021/12/25 12:41:14;;;;;;;0.30;0.30;;;3.20;99.40;;;;;;4429408;32;20094;-65
2021/12/25 12:44:03;;;;;;;0.30;0.30;;;3.30;99.00;;;;;;4440677;32;20127;-65
2021/12/25 12:46:50;;;;;;;0.30;0.30;;;2.90;99.10;;;;;;4433092;32;20069;-65
2021/12/25 12:49:20;;;;;;;0.37;0.37;;;2.90;98.70;;;;;;4441332;32;20493;-64
2021/12/25 12:51:49;;;;;;;0.30;0.30;;;2.40;99.20;;;;;;4445508;32;20422;-65
2021/12/25 12:54:43;;;;;;;0.37;0.37;;;2.50;99.40;;;;;;4445039;32;20068;-65
2021/12/25 12:57:08;;;;;;;0.30;0.30;;;2.70;98.70;;;;;;4441967;32;20534;-65
2021/12/25 13:00:00;;;;;;;0.30;0.30;;;2.90;99.60;;;;;;4444732;32;20076;-64
2021/12/25 13:02:31;;;;;;;0.68;0.43;;;3.10;98.50;;;;;;4445907;32;21264;-64
2021/12/25 13:05:00;;;;;;;;;;;2.70;99.10;;;;;;4438127;32;20074;-63
2021/12/25 13:07:29;;;;;;;0.40;0.40;;;2.70;99.70;;;;;;4431289;32;19995;-63
2021/12/25 13:09:58;;;;;;;0.30;0.30;;;3.00;98.40;;;;;;4442605;32;20057;-63
2021/12/25 13:12:40;;;;;;;0.40;0.40;;;3.10;98.60;;;;;;4440895;32;20076;-63
2021/12/25 13:15:11;;;;;;;3.33;1.00;;;2.60;99.50;;;;;;4444239;32;20113;-63
2021/12/25 13:17:38;;;;;;;0.30;0.30;;;2.00;99.90;;;;;;4444518;32;20057;-63
2021/12/25 13:20:06;;;;;;;0.30;0.30;;;2.40;99.90;;;;;;4444198;32;20104;-62
2021/12/25 13:22:31;;;;;;;0.30;0.30;;;2.00;99.90;;;;;;4445286;32;20105;-63
2021/12/25 13:25:18;;;;;;;0.62;0.62;;;1.60;99.90;;;;;;4443943;32;20127;-63
2021/12/25 13:27:44;;;;;;;0.30;0.30;;;1.40;99.90;;;;;;4444760;32;20546;-63
2021/12/25 13:30:16;;;;;;;0.40;0.40;;;1.50;99.90;;;;;;4442813;32;20082;-63
2021/12/25 13:32:43;;;;;;;0.70;0.70;;;1.20;99.90;;;;;;4443046;32;20077;-64
2021/12/25 13:35:10;;;;;;;0.50;0.50;;;0.90;99.90;;;;;;4445016;32;20420;-62
2021/12/25 13:37:35;;;;;;;1.00;0.95;;;0.50;99.90;;;;;;4445740;32;20094;-65
2021/12/25 13:40:07;;;;;;;0.37;0.37;;;0.50;99.90;;;;;;4443790;32;20066;-65
2021/12/25 13:42:33;;;;;;;0.40;0.40;;;0.50;99.90;;;;;;4447706;32;20073;-63
2021/12/25 13:44:59;;;;;;;0.88;0.88;;;0.80;99.90;;;;;;4444938;32;20093;-63